Time;durP1;ratioP1;P1;durP2;ratioP2;P2;SDS_P1;SDS_P2;PMS_P1;PMS_P2;Temp;Humidity;BMP_temperature;BMP_pressure;BME280_temperature;BME280_humidity;BME280_pressure;Samples;Min_cycle;Max_cycle;Signal;HPM_P1;HPM_P2
2022/05/15 00:02:40;;;;;;;4.57;1.70;;;;;;;11.45;55.15;98156.38;4992157;28;20058;-40
2022/05/15 00:05:07;;;;;;;5.55;1.95;;;;;;;11.54;55.10;98167.97;4997740;28;20054;-40
2022/05/15 00:07:32;;;;;;;3.65;1.85;;;;;;;11.60;55.25;98169.34;4992368;28;20525;-40
2022/05/15 00:09:58;;;;;;;8.60;1.98;;;;;;;11.62;55.07;98162.28;4993253;28;20038;-39
2022/05/15 00:12:24;;;;;;;4.53;1.98;;;;;;;11.63;55.42;98167.38;4999860;28;20042;-40
2022/05/15 00:14:49;;;;;;;4.03;1.85;;;;;;;11.64;55.48;98163.84;4977347;28;20053;-41
2022/05/15 00:17:16;;;;;;;4.80;1.75;;;;;;;11.64;54.84;98156.03;4991368;28;20074;-39
2022/05/15 00:19:43;;;;;;;7.13;1.90;;;;;;;11.46;55.25;98134.59;4961051;28;20177;-39
2022/05/15 00:22:09;;;;;;;3.25;2.05;;;;;;;11.57;55.14;98159.13;4998082;28;20488;-39
2022/05/15 00:24:38;;;;;;;4.25;1.85;;;;;;;11.55;54.66;98163.59;4987824;28;20045;-43
2022/05/15 00:27:04;;;;;;;3.00;1.60;;;;;;;11.47;55.13;98144.09;5004492;28;20041;-39
2022/05/15 00:29:30;;;;;;;5.20;1.95;;;;;;;11.56;54.90;98162.69;4990997;28;20068;-40
2022/05/15 00:31:56;;;;;;;3.88;2.03;;;;;;;11.52;55.27;98159.41;4985175;28;20045;-39
2022/05/15 00:34:22;;;;;;;3.70;1.92;;;;;;;11.40;54.99;98141.97;4990530;28;20204;-40
2022/05/15 00:36:48;;;;;;;3.28;1.88;;;;;;;11.44;55.09;98159.06;4967519;28;20551;-39
2022/05/15 00:39:13;;;;;;;2.97;1.85;;;;;;;11.42;55.07;98164.34;4988710;28;20038;-39
2022/05/15 00:41:41;;;;;;;7.28;1.70;;;;;;;11.40;54.93;98162.78;4969344;28;20051;-39
2022/05/15 00:44:08;;;;;;;4.63;1.63;;;;;;;11.35;54.92;98162.25;5005075;28;20042;-40
2022/05/15 00:46:39;;;;;;;3.83;1.60;;;;;;;11.34;55.24;98151.00;5008951;28;20038;-39
2022/05/15 00:49:09;;;;;;;3.95;1.90;;;;;;;11.32;55.94;98152.84;4991605;28;20050;-39
2022/05/15 00:51:46;;;;;;;6.13;2.00;;;;;;;11.29;55.58;98145.25;5004440;28;20501;-40
2022/05/15 00:54:24;;;;;;;4.85;1.80;;;;;;;11.25;55.66;98146.34;4998767;28;20049;-40
2022/05/15 00:57:20;;;;;;;3.35;1.55;;;;;;;11.28;55.91;98150.53;4994019;28;20046;-39
2022/05/15 00:59:51;;;;;;;4.65;1.70;;;;;;;11.29;55.62;98145.25;5002908;28;20088;-40
2022/05/15 01:02:19;;;;;;;3.78;2.15;;;;;;;11.21;55.48;98131.84;4966958;28;20129;-40
2022/05/15 01:04:46;;;;;;;3.35;1.75;;;;;;;11.27;56.18;98148.84;4994133;28;20117;-40
2022/05/15 01:07:12;;;;;;;4.32;1.85;;;;;;;11.18;56.16;98149.44;5006197;28;20080;-40
2022/05/15 01:09:39;;;;;;;3.88;1.60;;;;;;;11.17;56.03;98152.94;4974920;28;20499;-40
2022/05/15 01:12:06;;;;;;;8.90;1.90;;;;;;;11.08;56.38;98143.13;4990544;28;20066;-40
2022/05/15 01:14:32;;;;;;;3.65;1.92;;;;;;;11.10;56.01;98155.09;4997604;28;20465;-40
2022/05/15 01:16:58;;;;;;;6.03;1.83;;;;;;;11.15;55.83;98140.03;4984430;28;20050;-39
2022/05/15 01:19:33;;;;;;;4.80;1.67;;;;;;;11.11;55.94;98143.75;5002436;28;20046;-38
2022/05/15 01:22:00;;;;;;;6.65;1.77;;;;;;;11.15;56.08;98134.03;4995039;28;20121;-40
2022/05/15 01:24:27;;;;;;;4.28;1.60;;;;;;;11.15;56.14;98136.63;4989350;28;20054;-40
2022/05/15 01:26:54;;;;;;;3.38;1.70;;;;;;;11.26;56.43;98145.41;4954118;28;20348;-40
2022/05/15 01:29:28;;;;;;;6.60;1.70;;;;;;;11.19;56.08;98140.69;4993153;28;20049;-39
2022/05/15 01:31:54;;;;;;;5.10;1.80;;;;;;;11.20;56.01;98142.38;4982972;28;20047;-39
2022/05/15 01:34:20;;;;;;;5.65;1.80;;;;;;;11.18;56.33;98142.47;4999597;28;20081;-40
2022/05/15 01:36:48;;;;;;;3.15;1.70;;;;;;;11.19;56.21;98144.13;5007611;28;20077;-40
2022/05/15 01:39:14;;;;;;;6.07;1.98;;;;;;;11.19;56.71;98145.91;4996971;28;20088;-41
2022/05/15 01:41:40;;;;;;;3.65;1.45;;;;;;;11.12;56.42;98142.84;4989712;28;20033;-39
2022/05/15 01:44:07;;;;;;;3.30;1.80;;;;;;;11.10;56.57;98143.84;4998575;28;20050;-40
2022/05/15 01:46:33;;;;;;;5.22;1.50;;;;;;;11.10;56.78;98146.44;4974323;28;20049;-39
2022/05/15 01:49:06;;;;;;;3.88;1.60;;;;;;;11.06;56.87;98127.59;4990680;28;20387;-39
2022/05/15 01:51:34;;;;;;;5.70;1.80;;;;;;;11.08;56.98;98141.34;4988460;28;20437;-41
2022/05/15 01:54:02;;;;;;;3.70;1.80;;;;;;;11.17;56.57;98143.38;4976652;28;20473;-40
2022/05/15 01:56:28;;;;;;;5.38;1.92;;;;;;;11.18;56.94;98144.22;4987587;28;20065;-39
2022/05/15 01:58:55;;;;;;;3.83;1.95;;;;;;;11.23;56.47;98148.22;4993315;28;20038;-39
2022/05/15 02:01:21;;;;;;;7.13;3.13;;;;;;;11.25;56.36;98146.34;4979715;28;20046;-41
2022/05/15 02:03:47;;;;;;;4.78;1.80;;;;;;;11.15;56.90;98134.81;4981223;28;20581;-39
2022/05/15 02:06:13;;;;;;;5.28;1.52;;;;;;;11.21;56.88;98150.06;4992782;28;20130;-40
2022/05/15 02:08:39;;;;;;;2.92;1.80;;;;;;;11.21;56.70;98146.63;4992080;28;20112;-40
2022/05/15 02:11:05;;;;;;;2.80;1.60;;;;;;;11.31;56.04;98148.56;4990891;28;20121;-39
2022/05/15 02:13:32;;;;;;;5.35;1.98;;;;;;;11.34;56.55;98153.59;5004826;28;20045;-39
2022/05/15 02:15:58;;;;;;;5.72;1.70;;;;;;;11.38;56.27;98147.25;4999568;28;20050;-40
2022/05/15 02:18:24;;;;;;;3.53;1.80;;;;;;;11.39;56.58;98143.75;4988929;28;20065;-40
2022/05/15 02:20:50;;;;;;;7.68;2.22;;;;;;;11.42;56.06;98143.53;4992720;28;20572;-40
2022/05/15 02:23:16;;;;;;;4.70;1.40;;;;;;;11.48;56.14;98152.72;4989072;28;20050;-39
2022/05/15 02:25:42;;;;;;;3.03;1.58;;;;;;;11.48;56.19;98144.91;4990601;28;20533;-40
2022/05/15 02:28:09;;;;;;;2.97;1.33;;;;;;;11.55;55.64;98150.59;4970687;28;20097;-40
2022/05/15 02:30:35;;;;;;;4.53;1.58;;;;;;;11.63;55.99;98143.13;4991568;28;20530;-40
2022/05/15 02:33:01;;;;;;;4.13;1.50;;;;;;;11.57;55.67;98143.50;4979025;28;20109;-39
2022/05/15 02:35:27;;;;;;;4.32;1.50;;;;;;;11.53;55.78;98132.47;4980429;28;20054;-40
2022/05/15 02:37:53;;;;;;;5.63;1.60;;;;;;;11.73;55.85;98149.44;4999880;28;20049;-39
2022/05/15 02:40:22;;;;;;;5.85;1.90;;;;;;;11.83;55.70;98153.13;4990889;28;20096;-42
2022/05/15 02:42:48;;;;;;;4.68;1.40;;;;;;;11.87;55.48;98145.06;4991795;28;20054;-40
2022/05/15 02:45:14;;;;;;;2.25;1.17;;;;;;;11.94;55.21;98148.06;4968246;28;20074;-40
2022/05/15 02:47:41;;;;;;;3.92;1.40;;;;;;;11.96;55.48;98145.38;4998236;28;20553;-42
2022/05/15 02:52:53;;;;;;;2.60;1.40;;;;;;;11.71;55.06;98128.69;4978512;28;20125;-41
2022/05/15 02:55:22;;;;;;;3.00;1.20;;;;;;;11.86;55.06;98147.75;5004649;28;20050;-39
2022/05/15 02:57:48;;;;;;;2.35;1.13;;;;;;;11.89;55.21;98150.13;4989513;28;20522;-40
2022/05/15 03:00:15;;;;;;;2.65;1.55;;;;;;;11.89;54.82;98139.72;4984415;28;20048;-41
2022/05/15 03:02:41;;;;;;;3.28;1.30;;;;;;;11.99;54.64;98148.63;5005119;28;20576;-41
2022/05/15 03:05:09;;;;;;;2.97;1.42;;;;;;;12.10;54.67;98147.91;4991579;28;20073;-40
2022/05/15 03:07:36;;;;;;;3.25;1.40;;;;;;;12.18;54.47;98146.50;5000823;28;20037;-41
2022/05/15 03:10:03;;;;;;;3.20;1.50;;;;;;;12.27;54.81;98153.72;4991410;28;20514;-39
2022/05/15 03:12:29;;;;;;;4.15;1.42;;;;;;;12.21;54.67;98148.91;4970007;28;20042;-41
2022/05/15 03:14:55;;;;;;;4.80;1.38;;;;;;;12.26;54.19;98146.81;4999773;28;20041;-41
2022/05/15 03:17:21;;;;;;;3.55;1.45;;;;;;;12.25;54.29;98152.97;4989055;28;20062;-40
2022/05/15 03:19:47;;;;;;;1.67;1.20;;;;;;;12.02;54.45;98127.59;5001958;28;20555;-40
2022/05/15 03:22:13;;;;;;;3.80;1.40;;;;;;;11.95;54.37;98125.47;4998622;28;20129;-41
2022/05/15 03:24:39;;;;;;;3.30;1.30;;;;;;;12.00;55.05;98144.25;5008777;28;20108;-40
2022/05/15 03:27:05;;;;;;;2.03;1.33;;;;;;;12.03;54.96;98146.66;4996828;28;20124;-39
2022/05/15 03:29:31;;;;;;;2.63;1.50;;;;;;;11.96;55.07;98150.59;5007932;28;20132;-40
2022/05/15 03:31:57;;;;;;;2.35;1.33;;;;;;;11.79;55.66;98154.25;5006210;28;20082;-40
2022/05/15 03:34:23;;;;;;;3.60;1.80;;;;;;;11.78;55.48;98147.38;4998492;28;20052;-40
2022/05/15 03:36:51;;;;;;;5.00;1.50;;;;;;;11.87;55.56;98150.25;4994928;28;20042;-39
2022/05/15 03:39:20;;;;;;;2.70;1.50;;;;;;;11.94;55.38;98158.50;4976830;28;20054;-39
2022/05/15 03:41:47;;;;;;;;;;;;;;;12.07;55.53;98158.56;5005200;28;20073;-40
2022/05/15 03:44:13;;;;;;;4.50;1.42;;;;;;;12.17;55.21;98157.00;4999825;28;19926;-41
2022/05/15 03:46:40;;;;;;;4.28;1.40;;;;;;;12.22;55.05;98160.16;5003550;28;20466;-39
2022/05/15 03:49:07;;;;;;;5.68;1.30;;;;;;;12.25;54.64;98162.56;4976082;28;20057;-40
2022/05/15 03:51:33;;;;;;;3.08;1.42;;;;;;;12.18;55.10;98153.47;4989175;28;20076;-41
2022/05/15 03:54:00;;;;;;;4.80;1.27;;;;;;;12.29;55.01;98156.22;4994769;28;20046;-40
2022/05/15 03:59:12;;;;;;;3.22;1.30;;;;;;;12.55;55.09;98144.91;4970541;28;20126;-40
2022/05/15 04:01:38;;;;;;;5.13;1.48;;;;;;;12.60;54.75;98153.25;4974336;28;20058;-40
2022/05/15 04:04:04;;;;;;;3.15;1.30;;;;;;;12.60;54.75;98155.03;4977236;28;20436;-40
2022/05/15 04:06:30;;;;;;;4.95;1.83;;;;;;;12.56;54.58;98156.97;4985654;28;20042;-42
2022/05/15 04:08:56;;;;;;;5.65;1.25;;;;;;;12.48;55.10;98153.22;4999978;28;20088;-40
2022/05/15 04:11:23;;;;;;;4.15;1.70;;;;;;;12.33;54.96;98142.06;5001819;28;20073;-40
2022/05/15 04:13:48;;;;;;;4.18;1.63;;;;;;;12.38;55.56;98152.16;5000566;28;20148;-40
2022/05/15 04:16:14;;;;;;;5.00;1.23;;;;;;;12.36;55.40;98148.81;4993890;28;22056;-40
2022/05/15 04:18:41;;;;;;;3.42;1.40;;;;;;;12.41;55.18;98149.34;4982511;28;20046;-40
2022/05/15 04:21:06;;;;;;;5.13;1.48;;;;;;;12.49;55.23;98147.94;4973072;28;20045;-39
2022/05/15 04:23:33;;;;;;;5.03;1.30;;;;;;;12.49;55.39;98142.72;4988248;28;20136;-41
2022/05/15 04:25:59;;;;;;;6.05;1.30;;;;;;;12.59;55.33;98148.13;4993048;28;20046;-41
2022/05/15 04:28:25;;;;;;;3.78;1.40;;;;;;;12.69;55.08;98150.03;5007047;28;20057;-41
2022/05/15 04:30:51;;;;;;;3.22;1.20;;;;;;;12.76;54.92;98140.03;5012471;28;20045;-41
2022/05/15 04:33:17;;;;;;;6.35;1.20;;;;;;;12.96;54.33;98136.88;4996213;28;20532;-42
2022/05/15 04:35:42;;;;;;;2.88;1.33;;;;;;;13.36;53.50;98150.63;4982292;28;20042;-40
2022/05/15 04:38:09;;;;;;;2.50;1.02;;;;;;;13.57;52.30;98146.53;4978986;28;20133;-41
2022/05/15 04:40:34;;;;;;;4.97;1.60;;;;;;;13.60;52.22;98124.59;5002202;28;20045;-39
2022/05/15 04:43:00;;;;;;;2.65;1.27;;;;;;;14.02;51.67;98149.41;4990359;28;20132;-39
2022/05/15 04:45:26;;;;;;;2.03;1.05;;;;;;;14.27;51.58;98144.03;4989648;28;20049;-41
2022/05/15 04:47:52;;;;;;;2.65;0.80;;;;;;;14.28;50.46;98134.41;4995004;28;20049;-41
2022/05/15 04:50:19;;;;;;;4.95;1.42;;;;;;;14.37;50.26;98141.59;4996814;28;20034;-40
2022/05/15 04:52:45;;;;;;;4.18;1.63;;;;;;;14.32;50.58;98138.47;4983865;28;20140;-40
2022/05/15 04:55:11;;;;;;;4.07;1.52;;;;;;;14.43;50.59;98142.94;4989835;28;20478;-40
2022/05/15 04:57:37;;;;;;;6.20;1.20;;;;;;;14.57;49.90;98127.88;5005526;28;20045;-40
2022/05/15 05:00:10;;;;;;;6.28;1.40;;;;;;;14.74;49.63;98142.28;5002527;28;20112;-40
2022/05/15 05:02:36;;;;;;;5.72;1.15;;;;;;;14.68;49.22;98132.28;4994425;28;20070;-40
2022/05/15 05:05:02;;;;;;;5.53;1.50;;;;;;;14.89;49.49;98148.97;4993610;28;20050;-40
2022/05/15 05:07:29;;;;;;;2.83;0.98;;;;;;;15.05;48.46;98144.22;4987245;28;20046;-40
2022/05/15 05:09:55;;;;;;;2.38;1.05;;;;;;;15.24;48.51;98141.84;4995143;28;20048;-40
2022/05/15 05:12:21;;;;;;;3.97;1.30;;;;;;;15.53;47.71;98141.41;5005391;28;20045;-41
2022/05/15 05:14:47;;;;;;;3.88;1.30;;;;;;;15.62;47.43;98148.53;4989688;28;20038;-39
2022/05/15 05:17:14;;;;;;;7.32;1.70;;;;;;;15.73;47.26;98145.03;5005116;28;20060;-41
2022/05/15 05:19:41;;;;;;;1.92;1.10;;;;;;;15.54;47.00;98140.44;4994701;28;20399;-40
2022/05/15 05:22:06;;;;;;;4.38;1.30;;;;;;;15.52;47.35;98144.97;5004368;28;20037;-40
2022/05/15 05:24:33;;;;;;;3.05;1.35;;;;;;;15.59;47.21;98141.75;4991920;28;20498;-40
2022/05/15 05:26:59;;;;;;;2.38;1.35;;;;;;;15.96;46.63;98142.22;4988624;28;20053;-41
2022/05/15 05:29:25;;;;;;;3.85;1.17;;;;;;;16.11;45.93;98148.06;4996757;28;20556;-41
2022/05/15 05:31:51;;;;;;;2.50;1.10;;;;;;;16.25;46.09;98152.16;4975830;28;20049;-40
2022/05/15 05:34:17;;;;;;;3.67;1.60;;;;;;;16.20;46.01;98133.34;4986409;28;20038;-40
2022/05/15 05:36:43;;;;;;;2.20;1.40;;;;;;;15.87;46.35;98147.38;4998220;28;20097;-40
2022/05/15 05:39:08;;;;;;;4.22;1.60;;;;;;;15.51;47.03;98135.41;5005861;28;20048;-40
2022/05/15 05:41:34;;;;;;;3.05;1.38;;;;;;;15.42;47.21;98144.00;5003706;28;20088;-40
2022/05/15 05:44:00;;;;;;;8.02;1.92;;;;;;;15.31;47.41;98146.63;4994529;28;20477;-40
2022/05/15 05:46:29;;;;;;;5.85;1.95;;;;;;;15.24;48.06;98141.84;4998167;28;20809;-40
2022/05/15 05:48:55;;;;;;;;;;;;;;;15.28;47.69;98138.03;4984702;28;20125;-41
2022/05/15 05:51:21;;;;;;;3.75;1.42;;;;;;;15.36;47.87;98150.53;4989609;28;20019;-40
2022/05/15 05:53:47;;;;;;;5.72;1.75;;;;;;;15.16;48.79;98144.25;4987986;28;20494;-40
2022/05/15 05:56:13;;;;;;;1.75;1.20;;;;;;;14.95;48.88;98152.91;4984377;28;20506;-41
2022/05/15 05:58:39;;;;;;;5.40;1.60;;;;;;;14.99;48.62;98149.09;4994018;28;20045;-40
2022/05/15 06:01:05;;;;;;;3.60;1.20;;;;;;;15.14;48.61;98133.03;4989136;28;20425;-40
2022/05/15 06:06:15;;;;;;;2.92;1.23;;;;;;;15.93;47.19;98141.66;4990959;28;20101;-40
2022/05/15 06:08:42;;;;;;;4.93;1.73;;;;;;;16.21;46.64;98145.50;4990795;28;20040;-41
2022/05/15 06:11:09;;;;;;;3.22;1.50;;;;;;;16.60;46.31;98147.47;4976435;28;20042;-41
2022/05/15 06:13:35;;;;;;;3.13;1.35;;;;;;;16.82;45.44;98147.34;4989319;28;20116;-40
2022/05/15 06:16:01;;;;;;;3.38;1.58;;;;;;;16.80;44.94;98137.97;4989749;28;20130;-41
2022/05/15 06:18:27;;;;;;;4.63;1.50;;;;;;;17.24;44.74;98148.13;4996170;28;20129;-40
2022/05/15 06:20:54;;;;;;;3.53;1.23;;;;;;;17.64;44.01;98153.41;4996763;28;20382;-40
2022/05/15 06:23:21;;;;;;;5.28;1.67;;;;;;;18.08;42.80;98146.84;4994609;28;20093;-41
2022/05/15 06:25:47;;;;;;;4.40;1.33;;;;;;;18.04;42.81;98147.28;4984913;28;20042;-40
2022/05/15 06:28:12;;;;;;;5.88;1.45;;;;;;;17.85;42.44;98144.63;4992046;28;20085;-40
2022/05/15 06:30:38;;;;;;;2.70;1.30;;;;;;;17.63;43.08;98146.50;5007802;28;20046;-40
2022/05/15 06:33:05;;;;;;;6.68;2.00;;;;;;;17.63;43.24;98141.25;4993225;28;20049;-41
2022/05/15 06:35:32;;;;;;;7.68;1.90;;;;;;;18.72;41.22;98134.97;4996312;28;20043;-41
2022/05/15 06:38:05;;;;;;;3.15;1.45;;;;;;;19.96;38.18;98152.06;5002802;28;20050;-40
2022/05/15 06:40:31;;;;;;;3.42;1.52;;;;;;;20.87;36.53;98144.81;4998840;28;20434;-41
2022/05/15 06:42:57;;;;;;;2.95;1.52;;;;;;;21.64;35.35;98139.47;4996080;28;20034;-41
2022/05/15 06:45:24;;;;;;;2.20;1.50;;;;;;;22.50;33.86;98140.00;4997001;28;20111;-41
2022/05/15 06:47:50;;;;;;;4.15;1.55;;;;;;;23.32;32.94;98141.56;5002810;28;20059;-40
2022/05/15 06:50:16;;;;;;;2.63;1.65;;;;;;;23.67;31.62;98142.13;5001413;28;20126;-41
2022/05/15 06:52:42;;;;;;;3.50;1.60;;;;;;;23.67;31.37;98134.97;4985311;28;20077;-41
2022/05/15 06:55:12;;;;;;;5.63;1.75;;;;;;;24.15;30.64;98127.75;5003473;28;20509;-40
2022/05/15 06:57:39;;;;;;;8.90;1.58;;;;;;;24.16;30.42;98130.25;4987434;28;20034;-41
2022/05/15 07:00:18;;;;;;;4.13;1.50;;;;;;;24.53;29.41;98134.81;5003963;28;20517;-40
2022/05/15 07:02:46;;;;;;;3.83;1.52;;;;;;;25.57;28.52;98116.16;4999405;28;20498;-39
2022/05/15 07:05:13;;;;;;;3.80;1.75;;;;;;;27.40;25.88;98118.06;4991993;28;20058;-41
2022/05/15 07:07:40;;;;;;;4.35;1.50;;;;;;;28.59;24.39;98124.63;4993441;28;20042;-40
2022/05/15 07:10:07;;;;;;;2.63;1.48;;;;;;;29.54;23.14;98123.31;4993021;28;20038;-41
2022/05/15 07:12:33;;;;;;;3.65;0.95;;;;;;;28.60;22.45;98131.63;4997467;28;20597;-40
2022/05/15 07:14:58;;;;;;;2.08;1.30;;;;;;;25.21;26.24;98123.22;4999391;28;20049;-40
2022/05/15 07:17:24;;;;;;;5.20;1.38;;;;;;;23.66;29.07;98119.25;4976343;28;20442;-40
2022/05/15 07:19:50;;;;;;;2.80;1.10;;;;;;;22.44;31.05;98116.00;5007599;28;20052;-41
2022/05/15 07:22:16;;;;;;;5.60;1.30;;;;;;;21.60;34.92;98114.34;5002239;28;20045;-41
2022/05/15 07:24:41;;;;;;;6.65;1.33;;;;;;;21.07;37.20;98119.84;4993659;28;20069;-42
2022/05/15 07:27:08;;;;;;;8.50;2.55;;;;;;;20.62;38.62;98122.69;4987583;28;20906;-40
2022/05/15 07:29:36;;;;;;;5.65;1.17;;;;;;;20.23;40.00;98128.28;4989110;28;20038;-40
2022/05/15 07:32:06;;;;;;;5.85;2.00;;;;;;;19.83;42.22;98123.44;4983900;28;20081;-41
2022/05/15 07:34:32;;;;;;;4.95;1.80;;;;;;;19.42;43.54;98119.44;4988658;28;20125;-40
2022/05/15 07:36:58;;;;;;;4.63;1.77;;;;;;;19.15;44.15;98121.25;5002024;28;20050;-40
2022/05/15 07:39:24;;;;;;;4.80;1.73;;;;;;;18.92;45.03;98124.22;4997100;28;20125;-40
2022/05/15 07:41:50;;;;;;;5.90;1.98;;;;;;;18.79;44.95;98125.53;4985708;28;20424;-39
2022/05/15 07:44:17;;;;;;;5.60;1.65;;;;;;;18.69;45.05;98124.69;4992875;28;20502;-41
2022/05/15 07:46:43;;;;;;;5.18;1.60;;;;;;;18.49;44.83;98121.22;4993123;28;20049;-40
2022/05/15 07:49:09;;;;;;;31.77;3.67;;;;;;;18.37;43.45;98125.81;4993387;28;20048;-40
2022/05/15 07:51:37;;;;;;;1.90;0.88;;;;;;;18.42;42.41;98135.94;4984243;28;20525;-40
2022/05/15 07:54:03;;;;;;;40.80;4.90;;;;;;;18.45;41.92;98133.84;4985855;28;20042;-40
2022/05/15 07:56:28;;;;;;;8.68;1.10;;;;;;;18.66;41.50;98133.72;4985751;28;20443;-40
2022/05/15 07:58:54;;;;;;;2.78;1.30;;;;;;;19.30;41.29;98122.44;4989012;28;20541;-39
2022/05/15 08:01:20;;;;;;;27.02;2.70;;;;;;;20.15;40.08;98132.66;4979707;28;20043;-40
2022/05/15 08:03:46;;;;;;;2.55;0.80;;;;;;;20.70;38.10;98134.13;4986774;28;20054;-41
2022/05/15 08:08:59;;;;;;;32.22;2.97;;;;;;;21.51;33.65;98125.88;4983637;28;20127;-40
2022/05/15 08:11:28;;;;;;;2.28;0.68;;;;;;;21.23;34.35;98130.53;4987298;28;20069;-40
2022/05/15 08:13:58;;;;;;;2.72;1.35;;;;;;;20.86;34.77;98127.31;4999517;28;20041;-40
2022/05/15 08:16:24;;;;;;;1.95;1.15;;;;;;;20.34;35.50;98110.56;5001463;28;20049;-40
2022/05/15 08:24:26;;;;;;;2.92;1.10;;;;;;;22.96;32.29;98113.81;4987094;28;20117;-39
2022/05/15 08:26:52;;;;;;;4.40;3.72;;;;;;;25.64;28.56;98105.59;5006906;28;20469;-39
2022/05/15 08:29:18;;;;;;;3.97;2.97;;;;;;;27.79;25.97;98117.44;4993314;28;20140;-49
2022/05/15 08:31:45;;;;;;;8.43;1.58;;;;;;;28.50;24.49;98104.47;4995427;28;20056;-43
2022/05/15 08:34:10;;;;;;;22.35;2.75;;;;;;;27.94;25.17;98134.16;5003812;28;20033;-43
2022/05/15 08:36:39;;;;;;;25.58;3.55;;;;;;;26.56;27.10;98134.06;5005623;28;20107;-42
2022/05/15 08:39:05;;;;;;;25.85;3.03;;;;;;;24.85;30.09;98163.78;4991617;28;20434;-43
2022/05/15 08:41:30;;;;;;;8.77;2.03;;;;;;;22.99;35.31;98162.00;4993830;28;20039;-43
2022/05/15 08:43:56;;;;;;;7.35;1.80;;;;;;;21.25;38.45;98143.59;4986189;28;20045;-42
2022/05/15 08:46:21;;;;;;;13.13;2.00;;;;;;;19.95;41.63;98128.47;4987149;28;20042;-42
2022/05/15 08:48:48;;;;;;;8.35;1.65;;;;;;;19.01;44.02;98114.63;4998439;28;20104;-44
2022/05/15 08:51:14;;;;;;;2.92;1.10;;;;;;;18.57;45.55;98150.34;4983714;28;20046;-42
2022/05/15 08:53:41;;;;;;;4.05;1.05;;;;;;;18.12;45.07;98150.03;4997601;28;20077;-41
2022/05/15 08:56:10;;;;;;;5.60;2.20;;;;;;;17.73;42.89;98157.88;4984046;28;20077;-42
2022/05/15 08:58:48;;;;;;;6.05;1.30;;;;;;;17.45;42.89;98155.94;4995456;28;20438;-41
2022/05/15 09:01:17;;;;;;;3.42;0.85;;;;;;;16.97;42.30;98152.25;4995656;28;20038;-42
2022/05/15 09:03:43;;;;;;;2.70;1.10;;;;;;;16.58;43.38;98177.41;5001479;28;20074;-41
2022/05/15 09:06:28;;;;;;;8.50;2.10;;;;;;;16.62;45.10;98174.44;5003159;28;20057;-42
2022/05/15 09:09:12;;;;;;;8.50;1.90;;;;;;;16.70;47.31;98184.28;4991509;28;20034;-41
2022/05/15 09:11:57;;;;;;;7.05;1.58;;;;;;;16.73;48.47;98186.66;5000369;28;20061;-43
2022/05/15 09:14:29;;;;;;;6.20;1.40;;;;;;;16.70;48.27;98190.38;4987643;28;20046;-45
2022/05/15 09:16:58;;;;;;;8.15;1.58;;;;;;;16.65;48.59;98179.41;4976856;28;20529;-44
2022/05/15 09:19:24;;;;;;;4.13;1.00;;;;;;;16.64;49.25;98188.28;4994575;28;20067;-42
2022/05/15 09:21:54;;;;;;;4.88;1.77;;;;;;;16.71;50.11;98192.03;4972455;28;20084;-43
2022/05/15 09:24:40;;;;;;;1.83;0.90;;;;;;;16.74;50.82;98189.16;4989490;28;20050;-55
2022/05/15 09:27:23;;;;;;;4.88;0.90;;;;;;;16.77;51.10;98174.94;4972804;28;20565;-58
2022/05/15 09:29:58;;;;;;;1.83;1.00;;;;;;;16.95;51.10;98155.03;4987733;28;20477;-59
2022/05/15 09:32:39;;;;;;;5.38;1.00;;;;;;;17.17;51.02;98167.16;4994087;28;20048;-56
2022/05/15 09:35:26;;;;;;;2.42;1.10;;;;;;;18.38;49.70;98161.69;4984504;28;20050;-52
2022/05/15 09:43:32;;;;;;;2.58;1.35;;;;;;;25.36;37.27;98152.47;4990157;28;20628;-54
2022/05/15 09:46:06;;;;;;;3.40;1.35;;;;;;;27.14;32.93;98150.75;4996095;28;20615;-58
2022/05/15 09:49:03;;;;;;;1.25;0.90;;;;;;;28.41;30.10;98151.97;4988460;28;20068;-59
2022/05/15 09:51:49;;;;;;;2.38;1.00;;;;;;;29.20;27.80;98151.19;4967116;28;20050;-57
2022/05/15 09:54:38;;;;;;;1.95;1.17;;;;;;;30.60;26.05;98144.03;5006310;28;20487;-56
2022/05/15 09:57:22;;;;;;;2.55;1.33;;;;;;;31.82;24.15;98147.84;4966118;28;20046;-57
2022/05/15 09:59:59;;;;;;;1.75;1.25;;;;;;;32.96;22.82;98153.06;4980752;28;20104;-59
2022/05/15 10:02:39;;;;;;;3.35;1.10;;;;;;;33.68;21.20;98156.34;4983263;28;22996;-59
2022/05/15 10:05:14;;;;;;;1.58;0.90;;;;;;;33.51;21.64;98161.63;4997508;28;20049;-57
2022/05/15 10:07:46;;;;;;;4.95;1.30;;;;;;;31.57;23.33;98169.41;4986709;28;20050;-57
2022/05/15 10:10:17;;;;;;;1.70;0.80;;;;;;;29.34;24.06;98163.53;4990408;28;20042;-57
2022/05/15 10:12:45;;;;;;;1.70;0.90;;;;;;;27.71;26.76;98161.16;4981799;28;20073;-57
2022/05/15 10:15:11;;;;;;;2.75;0.73;;;;;;;26.28;28.25;98169.63;4981810;28;20062;-59
2022/05/15 10:17:45;;;;;;;5.90;1.10;;;;;;;25.01;30.18;98167.31;4987581;28;20128;-57
2022/05/15 10:20:44;;;;;;;2.10;1.00;;;;;;;23.74;32.32;98178.41;4974206;28;20037;-58
2022/05/15 10:23:17;;;;;;;;;;;;;;;22.74;33.91;98182.41;4951134;28;20132;-57
2022/05/15 10:25:53;;;;;;;4.13;0.85;;;;;;;21.78;35.34;98157.38;4967828;28;19922;-56
2022/05/15 10:28:45;;;;;;;1.15;0.70;;;;;;;21.17;38.21;98164.69;4987803;28;20084;-58
2022/05/15 10:31:35;;;;;;;1.33;0.60;;;;;;;20.71;39.67;98172.78;5005256;28;20107;-56
2022/05/15 10:34:04;;;;;;;2.67;0.90;;;;;;;20.54;40.54;98167.50;4983329;28;20039;-49
2022/05/15 10:36:49;;;;;;;3.20;0.90;;;;;;;21.19;38.80;98168.84;4984591;28;20053;-59
2022/05/15 10:39:30;;;;;;;1.15;0.90;;;;;;;23.67;34.96;98158.88;4981678;28;20043;-61
2022/05/15 10:42:14;;;;;;;1.92;1.00;;;;;;;26.38;30.42;98162.19;4973790;28;20042;-62
2022/05/15 10:45:08;;;;;;;2.13;0.82;;;;;;;27.98;28.08;98154.09;4978317;28;20046;-55
2022/05/15 10:47:43;;;;;;;3.80;0.80;;;;;;;28.47;27.04;98159.16;4968769;28;20085;-51
2022/05/15 10:50:34;;;;;;;2.10;0.90;;;;;;;28.63;26.50;98161.44;4976794;28;20054;-58
2022/05/15 10:59:45;;;;;;;5.07;1.65;;;;;;;26.22;28.80;98154.41;4986589;28;20038;-60
2022/05/15 11:02:41;;;;;;;2.92;1.20;;;;;;;25.91;28.64;98149.34;4965443;28;20053;-47
2022/05/15 11:05:19;;;;;;;1.08;0.70;;;;;;;25.60;29.17;98147.72;5011158;28;20062;-66
2022/05/15 11:08:12;;;;;;;2.40;1.50;;;;;;;25.68;29.18;98131.66;4988462;28;20038;-52
2022/05/15 11:11:03;;;;;;;2.53;0.80;;;;;;;26.40;27.97;98133.50;4988766;28;20042;-61
2022/05/15 11:13:30;;;;;;;1.27;1.00;;;;;;;27.55;26.72;98136.63;4986516;28;20509;-57
2022/05/15 11:16:33;;;;;;;1.52;1.02;;;;;;;28.85;24.52;98140.69;4984713;28;20048;-63
2022/05/15 11:19:21;;;;;;;1.35;1.10;;;;;;;30.01;23.40;98139.00;4972567;28;20425;-48
2022/05/15 11:22:05;;;;;;;1.48;1.10;;;;;;;31.04;22.57;98126.97;4987743;28;20038;-53
2022/05/15 11:24:40;;;;;;;3.65;1.17;;;;;;;31.90;21.91;98129.53;4989365;28;20311;-59
2022/05/15 11:27:21;;;;;;;2.45;1.45;;;;;;;32.88;21.14;98123.78;4988318;28;20101;-54
2022/05/15 11:29:49;;;;;;;3.95;1.30;;;;;;;33.71;20.32;98117.31;4995130;28;20128;-59
2022/05/15 11:32:30;;;;;;;2.13;1.15;;;;;;;34.37;19.09;98124.81;4994526;28;20072;-62
2022/05/15 11:35:29;;;;;;;2.60;1.73;;;;;;;34.76;18.84;98125.75;4983446;28;20042;-48
2022/05/15 11:37:56;;;;;;;2.30;1.52;;;;;;;35.25;18.14;98119.50;4981204;28;20088;-46
2022/05/15 11:40:33;;;;;;;2.65;1.70;;;;;;;35.84;17.44;98117.06;4990184;28;20111;-60
2022/05/15 11:43:20;;;;;;;5.05;1.30;;;;;;;35.79;16.30;98122.41;4988604;28;20469;-49
2022/05/15 11:45:51;;;;;;;3.45;1.30;;;;;;;35.89;15.42;98117.13;4986822;28;20053;-50
2022/05/15 11:48:17;;;;;;;1.77;1.20;;;;;;;35.61;15.22;98104.56;4986823;28;20564;-53
2022/05/15 11:50:58;;;;;;;5.32;1.60;;;;;;;36.07;16.20;98095.09;4986255;28;20030;-50
2022/05/15 11:53:46;;;;;;;1.90;1.60;;;;;;;36.71;14.77;98110.63;4982438;28;20050;-59
2022/05/15 11:56:39;;;;;;;1.92;1.52;;;;;;;36.84;14.48;98113.75;4988972;28;20808;-51
2022/05/15 11:59:13;;;;;;;1.50;1.40;;;;;;;37.22;14.33;98109.94;4980357;28;20068;-60
2022/05/15 12:01:40;;;;;;;4.15;1.52;;;;;;;37.31;14.35;98118.41;4983497;28;20445;-58
2022/05/15 12:04:07;;;;;;;4.35;1.67;;;;;;;37.36;14.53;98107.56;4991706;28;20145;-51
2022/05/15 12:06:47;;;;;;;2.63;1.42;;;;;;;37.52;14.06;98087.59;4995869;28;20073;-60
2022/05/15 12:09:16;;;;;;;4.40;1.80;;;;;;;37.45;13.84;98105.16;4987746;28;20073;-59
2022/05/15 12:11:47;;;;;;;2.28;1.10;;;;;;;37.12;13.91;98098.22;4984004;28;20049;-56
2022/05/15 12:14:22;;;;;;;3.42;1.42;;;;;;;35.49;15.00;98095.75;5002730;28;20128;-54
2022/05/15 12:17:01;;;;;;;3.58;1.40;;;;;;;35.88;15.07;98098.41;4992017;28;20046;-58